Time;durP1;ratioP1;P1;durP2;ratioP2;P2;SDS_P1;SDS_P2;PMS_P1;PMS_P2;Temp;Humidity;BMP_temperature;BMP_pressure;BME280_temperature;BME280_humidity;BME280_pressure;Samples;Min_cycle;Max_cycle;Signal;HPM_P1;HPM_P2
2023/09/21 00:01:23;;;;;;;4.63;2.20;;;;;;;17.95;68.68;99812.59;5095466;28;20207;-76
2023/09/21 00:03:54;;;;;;;3.40;1.83;;;;;;;17.90;69.41;99807.88;5094803;28;20315;-76
2023/09/21 00:06:24;;;;;;;3.37;2.37;;;;;;;17.87;69.03;99802.09;5095632;28;20193;-76
2023/09/21 00:08:53;;;;;;;4.17;2.40;;;;;;;17.85;69.32;99798.78;5095590;28;20205;-77
2023/09/21 00:11:22;;;;;;;2.73;2.20;;;;;;;17.84;69.22;99805.28;5095533;28;20208;-77
2023/09/21 00:13:52;;;;;;;4.20;2.10;;;;;;;17.85;68.90;99799.59;5095437;28;20319;-77
2023/09/21 00:16:25;;;;;;;4.50;1.93;;;;;;;17.83;68.92;99790.91;5095400;28;20208;-77
2023/09/21 00:18:54;;;;;;;4.57;2.00;;;;;;;17.85;68.54;99787.94;5095074;28;20675;-77
2023/09/21 00:21:24;;;;;;;4.80;2.20;;;;;;;17.77;69.36;99785.59;5095305;28;20295;-77
2023/09/21 00:23:53;;;;;;;3.50;2.37;;;;;;;17.77;69.46;99791.81;5095274;28;20228;-77
2023/09/21 00:26:22;;;;;;;3.77;2.17;;;;;;;17.79;69.04;99788.88;5095326;28;20209;-77
2023/09/21 00:28:51;;;;;;;2.93;2.27;;;;;;;17.73;69.15;99786.03;5095225;28;20291;-76
2023/09/21 00:31:20;;;;;;;3.27;2.37;;;;;;;17.70;69.67;99781.09;5095232;28;20208;-76
2023/09/21 00:33:49;;;;;;;3.63;2.30;;;;;;;17.63;69.85;99780.34;5094727;28;20235;-76
2023/09/21 00:36:17;;;;;;;3.53;2.23;;;;;;;17.60;70.01;99772.66;5094733;28;20216;-76
2023/09/21 00:38:48;;;;;;;3.07;2.27;;;;;;;17.59;69.70;99770.22;5094916;28;20205;-76
2023/09/21 00:41:18;;;;;;;4.37;2.43;;;;;;;17.58;70.11;99769.38;5094996;28;20209;-76
2023/09/21 00:43:46;;;;;;;3.70;2.43;;;;;;;17.55;70.19;99769.81;5094503;28;20594;-76
2023/09/21 00:46:17;;;;;;;4.07;2.80;;;;;;;17.50;70.38;99758.03;5094894;28;20229;-75
2023/09/21 00:48:46;;;;;;;5.07;2.30;;;;;;;17.48;70.64;99762.81;5094899;28;20196;-76
2023/09/21 00:51:16;;;;;;;4.40;2.43;;;;;;;17.49;70.31;99754.50;5094774;28;20322;-76
2023/09/21 00:53:47;;;;;;;2.60;2.37;;;;;;;17.42;70.36;99756.47;5095258;28;20256;-76
2023/09/21 00:56:18;;;;;;;2.80;2.43;;;;;;;17.40;70.91;99755.84;5094403;28;20556;-76
2023/09/21 00:58:50;;;;;;;2.23;2.00;;;;;;;17.40;70.33;99752.31;5094487;28;20681;-76
2023/09/21 01:01:23;;;;;;;4.73;2.27;;;;;;;17.39;70.49;99756.09;5094675;28;20255;-76
2023/09/21 01:03:53;;;;;;;3.27;2.10;;;;;;;17.40;70.30;99749.59;5094727;28;20225;-75
2023/09/21 01:06:23;;;;;;;3.73;2.50;;;;;;;17.40;70.75;99752.31;5095037;28;20269;-75
2023/09/21 01:08:56;;;;;;;3.40;2.53;;;;;;;17.38;70.14;99743.59;5096701;28;20201;-75
2023/09/21 01:11:25;;;;;;;4.80;2.17;;;;;;;17.37;70.75;99740.06;5094433;28;20220;-75
2023/09/21 01:13:54;;;;;;;3.87;2.40;;;;;;;17.38;70.64;99749.00;5094281;28;20268;-75
2023/09/21 01:16:24;;;;;;;3.43;2.50;;;;;;;17.38;70.30;99744.44;5094311;28;20303;-75
2023/09/21 01:18:53;;;;;;;2.97;2.67;;;;;;;17.34;70.56;99732.41;5094344;28;20705;-75
2023/09/21 01:21:34;;;;;;;2.83;2.23;;;;;;;17.32;70.33;99734.53;5093815;28;20225;-75
2023/09/21 01:24:05;;;;;;;4.87;2.43;;;;;;;17.28;70.83;99733.34;5093820;28;20714;-75
2023/09/21 01:26:34;;;;;;;3.47;2.10;;;;;;;17.31;70.59;99732.03;5094225;28;20193;-75
2023/09/21 01:29:03;;;;;;;2.43;2.10;;;;;;;17.28;70.89;99725.22;5094110;28;20211;-75
2023/09/21 01:31:32;;;;;;;3.23;2.07;;;;;;;17.24;71.20;99721.31;5094080;28;20283;-75
2023/09/21 01:34:03;;;;;;;2.93;2.03;;;;;;;17.21;70.54;99719.06;5093572;28;20237;-75
2023/09/21 01:36:32;;;;;;;3.37;2.40;;;;;;;17.17;71.18;99725.97;5094028;28;20246;-75
2023/09/21 01:39:00;;;;;;;4.43;2.37;;;;;;;17.16;70.62;99719.75;5094418;28;20209;-75
2023/09/21 01:41:32;;;;;;;2.70;2.20;;;;;;;17.13;70.70;99722.91;5093805;28;20228;-75
2023/09/21 01:44:00;;;;;;;2.73;2.27;;;;;;;17.11;70.98;99716.91;5093524;28;20221;-75
2023/09/21 01:46:29;;;;;;;3.80;2.17;;;;;;;17.12;70.84;99720.44;5093867;28;20258;-76
2023/09/21 01:48:57;;;;;;;4.30;2.40;;;;;;;17.11;71.28;99716.06;5093505;28;20311;-76
2023/09/21 01:51:26;;;;;;;3.63;2.60;;;;;;;17.06;71.46;99713.22;5093505;28;20197;-76
2023/09/21 01:53:55;;;;;;;3.73;2.63;;;;;;;17.05;71.33;99709.72;5093687;28;20310;-76
2023/09/21 01:56:23;;;;;;;3.87;2.57;;;;;;;17.02;71.37;99709.34;5093446;28;20208;-76
2023/09/21 01:58:53;;;;;;;3.77;2.40;;;;;;;17.03;71.02;99708.25;5093657;28;20303;-76
2023/09/21 02:01:22;;;;;;;3.40;2.57;;;;;;;16.96;71.63;99707.50;5093543;28;20252;-76
2023/09/21 02:03:51;;;;;;;2.73;2.33;;;;;;;16.91;71.89;99700.09;5093506;28;20306;-76
2023/09/21 02:06:19;;;;;;;3.40;2.37;;;;;;;16.87;72.05;99698.06;5093523;28;20201;-75
2023/09/21 02:08:49;;;;;;;4.33;2.43;;;;;;;16.88;71.42;99692.44;5093682;28;20240;-76
2023/09/21 02:11:17;;;;;;;3.37;2.63;;;;;;;16.87;71.75;99687.25;5093917;28;20197;-76
2023/09/21 02:13:46;;;;;;;3.23;2.37;;;;;;;16.87;71.53;99692.66;5093321;28;20234;-76
2023/09/21 02:16:16;;;;;;;5.20;2.33;;;;;;;16.85;71.14;99687.47;5093559;28;20208;-76
2023/09/21 02:18:45;;;;;;;2.93;2.30;;;;;;;16.86;71.60;99688.28;5093521;28;20280;-76
2023/09/21 02:21:17;;;;;;;2.60;2.30;;;;;;;16.80;71.87;99686.50;5093406;28;20221;-76
2023/09/21 02:23:45;;;;;;;4.03;2.30;;;;;;;16.78;71.56;99677.81;5093215;28;20236;-76
2023/09/21 02:26:15;;;;;;;3.10;2.33;;;;;;;16.75;71.57;99670.16;5095236;28;20253;-76
2023/09/21 02:28:44;;;;;;;2.43;2.10;;;;;;;16.75;71.55;99667.44;5097560;28;20204;-76
2023/09/21 02:31:12;;;;;;;2.80;2.60;;;;;;;16.70;71.53;99676.22;5097448;28;20197;-76
2023/09/21 02:33:43;;;;;;;3.40;2.83;;;;;;;16.71;71.12;99673.28;5097087;28;20281;-77
2023/09/21 02:36:19;;;;;;;4.23;2.50;;;;;;;16.66;72.20;99670.44;5098498;28;20230;-76
2023/09/21 02:38:48;;;;;;;5.97;2.87;;;;;;;16.62;72.30;99669.25;5097103;28;20660;-76
2023/09/21 02:41:18;;;;;;;6.03;2.20;;;;;;;16.61;72.64;99667.59;5096905;28;20220;-76
2023/09/21 02:43:46;;;;;;;3.33;2.30;;;;;;;16.62;72.26;99668.41;5097243;28;20658;-76
2023/09/21 02:46:15;;;;;;;3.93;2.70;;;;;;;16.63;72.41;99670.91;5096914;28;20663;-76
2023/09/21 02:48:46;;;;;;;4.53;2.60;;;;;;;16.58;72.53;99668.03;5097162;28;20205;-76
2023/09/21 02:51:15;;;;;;;3.00;2.50;;;;;;;16.56;72.16;99664.75;5097222;28;20574;-75
2023/09/21 02:53:46;;;;;;;2.77;2.30;;;;;;;16.55;71.99;99662.22;5097001;28;20224;-76
2023/09/21 02:56:19;;;;;;;2.67;2.40;;;;;;;16.57;72.06;99650.19;5097013;28;20263;-76
2023/09/21 02:58:49;;;;;;;4.07;2.50;;;;;;;16.53;72.27;99651.66;5097049;28;20215;-76
2023/09/21 03:01:21;;;;;;;2.93;2.53;;;;;;;16.48;73.22;99654.19;5096601;28;20748;-76
2023/09/21 03:03:51;;;;;;;2.80;2.50;;;;;;;16.41;73.38;99645.34;5096869;28;20235;-76
2023/09/21 03:06:22;;;;;;;3.23;2.70;;;;;;;16.41;72.14;99642.63;5097135;28;20243;-77
2023/09/21 03:08:51;;;;;;;4.83;2.87;;;;;;;16.39;72.73;99639.34;5096860;28;20224;-76
2023/09/21 03:11:19;;;;;;;3.70;2.67;;;;;;;16.40;72.01;99637.47;5096730;28;20205;-76
2023/09/21 03:13:48;;;;;;;3.63;2.50;;;;;;;16.37;71.95;99632.53;5096619;28;20227;-76
2023/09/21 03:16:17;;;;;;;3.23;2.57;;;;;;;16.39;72.22;99633.94;5096328;28;20735;-76
2023/09/21 03:18:47;;;;;;;3.63;2.80;;;;;;;16.38;71.49;99637.69;5096592;28;20209;-76
2023/09/21 03:21:18;;;;;;;4.47;2.57;;;;;;;16.40;71.66;99632.91;5096244;28;20220;-76
2023/09/21 03:23:47;;;;;;;7.17;3.00;;;;;;;16.39;71.75;99635.81;5096461;28;20587;-76
2023/09/21 03:26:19;;;;;;;4.40;2.80;;;;;;;16.39;71.73;99631.25;5096458;28;20209;-76
2023/09/21 03:28:48;;;;;;;4.00;2.90;;;;;;;16.40;71.68;99627.50;5096116;28;20193;-76
2023/09/21 03:31:18;;;;;;;4.33;2.87;;;;;;;16.40;71.21;99630.19;5096352;28;20238;-76
2023/09/21 03:33:47;;;;;;;4.67;2.93;;;;;;;16.40;71.91;99627.50;5095851;28;20243;-76
2023/09/21 03:36:17;;;;;;;3.30;2.60;;;;;;;16.39;70.82;99625.84;5096277;28;20204;-76
2023/09/21 03:38:48;;;;;;;3.70;3.20;;;;;;;16.35;71.11;99624.63;5095022;28;20211;-76
2023/09/21 03:41:17;;;;;;;4.40;2.40;;;;;;;16.34;71.31;99622.97;5096080;28;20235;-76
2023/09/21 03:43:46;;;;;;;3.73;2.67;;;;;;;16.29;71.33;99613.91;5096012;28;20224;-76
2023/09/21 03:46:15;;;;;;;4.63;2.67;;;;;;;16.27;71.37;99616.81;5096040;28;20296;-77
2023/09/21 03:48:43;;;;;;;5.20;3.00;;;;;;;16.24;71.15;99614.56;5094757;28;20212;-76
2023/09/21 03:51:13;;;;;;;4.30;3.10;;;;;;;16.29;71.61;99609.31;5096332;28;20200;-75
2023/09/21 03:53:44;;;;;;;4.40;2.70;;;;;;;16.29;70.94;99601.22;5096518;28;20232;-76
2023/09/21 03:56:13;;;;;;;5.33;3.00;;;;;;;16.28;71.13;99602.25;5095867;28;20308;-76
2023/09/21 03:58:41;;;;;;;7.63;3.10;;;;;;;16.28;70.91;99607.66;5095950;28;20208;-77
2023/09/21 04:01:13;;;;;;;3.87;2.97;;;;;;;16.22;71.55;99605.88;5095709;28;20635;-76
2023/09/21 04:03:43;;;;;;;4.63;2.90;;;;;;;16.19;71.85;99609.03;5094200;28;20267;-76
2023/09/21 04:06:12;;;;;;;3.87;3.13;;;;;;;16.13;71.82;99594.50;5095998;28;20209;-76
2023/09/21 04:08:42;;;;;;;6.20;3.07;;;;;;;16.10;72.29;99594.13;5095671;28;20247;-76
2023/09/21 04:11:10;;;;;;;5.00;2.60;;;;;;;16.06;72.25;99598.34;5095632;28;20240;-76
2023/09/21 04:13:39;;;;;;;5.70;3.03;;;;;;;16.06;72.49;99593.75;5095527;28;20260;-76
2023/09/21 04:16:08;;;;;;;4.83;2.87;;;;;;;16.07;72.10;99595.41;5095174;28;20629;-76
2023/09/21 04:18:37;;;;;;;3.60;3.07;;;;;;;16.04;72.36;99585.06;5095468;28;20204;-76
2023/09/21 04:21:09;;;;;;;5.23;3.50;;;;;;;16.04;72.28;99589.63;5095341;28;20290;-76
2023/09/21 04:23:49;;;;;;;3.90;3.10;;;;;;;16.01;71.78;99584.69;5095042;28;20700;-76
2023/09/21 04:26:18;;;;;;;4.03;3.43;;;;;;;16.03;72.33;99585.28;5095304;28;20204;-76
2023/09/21 04:28:49;;;;;;;5.03;3.33;;;;;;;16.01;71.72;99590.09;5094951;28;20215;-76
2023/09/21 04:31:18;;;;;;;4.13;3.23;;;;;;;15.99;71.25;99586.81;5095202;28;20189;-76
2023/09/21 04:33:47;;;;;;;5.77;3.17;;;;;;;15.96;72.09;99590.75;5094828;28;20268;-76
2023/09/21 04:36:15;;;;;;;4.40;3.07;;;;;;;15.95;72.18;99589.13;5095118;28;20574;-76
2023/09/21 04:38:48;;;;;;;5.37;3.00;;;;;;;15.96;71.88;99581.84;5095061;28;20204;-76
2023/09/21 04:41:18;;;;;;;6.13;3.80;;;;;;;15.93;71.80;99574.16;5094631;28;20678;-79
2023/09/21 04:43:48;;;;;;;3.97;3.30;;;;;;;15.89;71.65;99578.38;5094991;28;20636;-77
2023/09/21 04:46:19;;;;;;;5.13;3.30;;;;;;;15.89;71.89;99576.50;5094948;28;20266;-77
2023/09/21 04:48:48;;;;;;;3.50;3.00;;;;;;;15.88;72.15;99584.81;5094638;28;20189;-77
2023/09/21 04:51:17;;;;;;;5.97;2.93;;;;;;;15.90;71.92;99572.75;5094835;28;20230;-76
2023/09/21 04:53:46;;;;;;;5.50;3.13;;;;;;;15.90;72.03;99571.91;5094689;28;20224;-76
2023/09/21 04:56:17;;;;;;;7.67;3.70;;;;;;;15.90;71.78;99566.53;5094720;28;20242;-76
2023/09/21 04:58:46;;;;;;;6.63;3.40;;;;;;;15.91;71.95;99576.28;5094713;28;20208;-76
2023/09/21 05:01:15;;;;;;;4.47;3.07;;;;;;;15.90;71.94;99569.22;5094591;28;20205;-76
2023/09/21 05:03:43;;;;;;;3.67;3.17;;;;;;;15.91;71.95;99568.19;5094746;28;20220;-76
2023/09/21 05:06:12;;;;;;;6.13;3.10;;;;;;;15.93;71.92;99571.47;5094517;28;20232;-76
2023/09/21 05:08:41;;;;;;;9.23;3.53;;;;;;;15.92;72.40;99564.44;5094463;28;20205;-76
2023/09/21 05:11:10;;;;;;;4.00;3.30;;;;;;;15.94;72.14;99567.72;5094441;28;20207;-76
2023/09/21 05:13:40;;;;;;;5.73;3.50;;;;;;;15.92;71.83;99564.44;5094360;28;20315;-76
2023/09/21 05:16:11;;;;;;;5.90;3.50;;;;;;;15.92;72.24;99564.44;5094424;28;20557;-76
2023/09/21 05:18:41;;;;;;;5.07;3.60;;;;;;;15.93;72.54;99566.91;5094597;28;20205;-76
2023/09/21 05:21:10;;;;;;;4.10;3.30;;;;;;;15.95;72.55;99564.00;5094259;28;20613;-76
2023/09/21 05:23:41;;;;;;;5.10;2.90;;;;;;;15.93;71.89;99560.69;5093801;28;20236;-76
2023/09/21 05:26:10;;;;;;;3.50;3.00;;;;;;;15.91;72.61;99566.31;5094242;28;20196;-76
2023/09/21 05:28:40;;;;;;;5.67;3.27;;;;;;;15.91;71.94;99557.38;5094157;28;20209;-76
2023/09/21 05:31:09;;;;;;;4.63;3.03;;;;;;;15.90;72.14;99567.34;5093846;28;20659;-76
2023/09/21 05:33:38;;;;;;;7.13;2.90;;;;;;;15.89;73.10;99563.00;5093863;28;20236;-76
2023/09/21 05:36:08;;;;;;;3.67;2.70;;;;;;;15.89;72.05;99564.91;5093708;28;20678;-76
2023/09/21 05:38:37;;;;;;;6.23;3.00;;;;;;;15.88;72.54;99565.94;5093626;28;20667;-76
2023/09/21 05:41:06;;;;;;;3.00;2.70;;;;;;;15.88;73.15;99563.25;5093849;28;20651;-76
2023/09/21 05:43:34;;;;;;;4.47;2.80;;;;;;;15.89;72.82;99560.28;5093771;28;20334;-76
2023/09/21 05:46:04;;;;;;;5.23;3.10;;;;;;;15.88;72.65;99569.47;5093908;28;20235;-76
2023/09/21 05:48:33;;;;;;;4.40;2.60;;;;;;;15.90;73.08;99561.13;5093814;28;20209;-76
2023/09/21 05:51:04;;;;;;;3.90;2.70;;;;;;;15.91;73.68;99566.31;5094104;28;20631;-76
2023/09/21 05:53:33;;;;;;;3.37;2.87;;;;;;;15.91;73.08;99554.69;5093720;28;20229;-76
2023/09/21 05:56:04;;;;;;;4.33;2.87;;;;;;;15.91;73.46;99557.38;5093431;28;20255;-76
2023/09/21 05:58:32;;;;;;;4.90;3.00;;;;;;;15.91;72.82;99558.22;5093757;28;20268;-76
2023/09/21 06:01:01;;;;;;;4.20;3.40;;;;;;;15.92;72.97;99559.03;5093029;28;20262;-76
2023/09/21 06:03:31;;;;;;;4.43;2.87;;;;;;;15.94;73.41;99562.34;5093502;28;20224;-76
2023/09/21 06:05:59;;;;;;;4.93;2.93;;;;;;;15.95;73.51;99554.03;5093355;28;20193;-76
2023/09/21 06:08:29;;;;;;;3.40;2.50;;;;;;;15.97;73.56;99556.50;5093559;28;20204;-76
2023/09/21 06:10:57;;;;;;;5.60;2.77;;;;;;;15.98;74.36;99555.44;5093600;28;20201;-76
2023/09/21 06:13:26;;;;;;;4.53;2.70;;;;;;;16.00;74.05;99550.63;5093186;28;20713;-76
2023/09/21 06:15:55;;;;;;;3.30;2.67;;;;;;;16.02;72.88;99549.38;5093500;28;20292;-76
2023/09/21 06:18:25;;;;;;;7.03;3.00;;;;;;;16.03;73.71;99545.63;5093520;28;20200;-76
2023/09/21 06:20:55;;;;;;;4.33;2.83;;;;;;;16.06;74.33;99538.97;5093455;28;20204;-76
2023/09/21 06:23:24;;;;;;;3.90;3.10;;;;;;;16.08;74.39;99547.66;5093598;28;20264;-76
2023/09/21 06:25:54;;;;;;;4.07;2.90;;;;;;;16.10;74.21;99556.34;5093426;28;20384;-76
2023/09/21 06:28:22;;;;;;;5.93;3.03;;;;;;;16.12;74.29;99546.16;5093386;28;20268;-76
2023/09/21 06:30:51;;;;;;;5.93;2.90;;;;;;;16.15;74.62;99546.53;5093388;28;20299;-76
2023/09/21 06:33:23;;;;;;;7.30;3.10;;;;;;;16.17;75.00;99541.72;5093082;28;20232;-76
2023/09/21 06:35:54;;;;;;;5.50;2.63;;;;;;;16.20;75.36;99540.44;5093394;28;20197;-76
2023/09/21 06:38:22;;;;;;;4.90;2.80;;;;;;;16.23;74.72;99534.63;5093289;28;20208;-76
2023/09/21 06:40:51;;;;;;;5.27;2.63;;;;;;;16.26;75.25;99541.44;5092965;28;20666;-76
2023/09/21 06:43:19;;;;;;;6.00;2.83;;;;;;;16.29;75.51;99536.41;5093160;28;20260;-76
2023/09/21 06:45:48;;;;;;;6.03;3.00;;;;;;;16.33;75.63;99534.91;5093356;28;20205;-76
2023/09/21 06:48:16;;;;;;;7.57;3.43;;;;;;;16.37;75.11;99529.88;5093406;28;20229;-76
2023/09/21 06:50:45;;;;;;;5.67;3.00;;;;;;;16.41;75.37;99531.88;5093090;28;20623;-76
2023/09/21 06:53:17;;;;;;;6.93;2.90;;;;;;;16.48;75.62;99526.38;5093205;28;20602;-76
2023/09/21 06:55:45;;;;;;;6.17;2.80;;;;;;;16.51;75.29;99531.31;5093349;28;20185;-76
2023/09/21 06:58:14;;;;;;;9.40;3.10;;;;;;;16.55;75.72;99527.13;5093186;28;20236;-76
2023/09/21 07:00:43;;;;;;;5.83;2.83;;;;;;;16.58;75.06;99527.53;5093117;28;20213;-76
2023/09/21 07:03:13;;;;;;;7.40;2.97;;;;;;;16.64;75.57;99520.41;5093243;28;20252;-77
2023/09/21 07:05:43;;;;;;;6.70;2.90;;;;;;;16.66;75.60;99524.50;5093037;28;20201;-77
2023/09/21 07:08:14;;;;;;;7.83;2.63;;;;;;;16.70;75.97;99514.91;5093345;28;20220;-77
2023/09/21 07:10:43;;;;;;;12.23;3.30;;;;;;;16.83;76.02;99521.16;5092735;28;20209;-77
2023/09/21 07:13:11;;;;;;;10.23;2.80;;;;;;;16.87;76.63;99522.34;5096199;28;20698;-77
2023/09/21 07:15:40;;;;;;;6.03;2.53;;;;;;;16.90;76.05;99519.19;5096748;28;20250;-76
2023/09/21 07:18:10;;;;;;;5.60;2.90;;;;;;;16.95;75.17;99519.31;5096330;28;20572;-76
2023/09/21 07:20:39;;;;;;;4.97;2.70;;;;;;;16.98;76.40;99516.97;5096630;28;20193;-77
2023/09/21 07:23:08;;;;;;;5.93;2.57;;;;;;;17.09;75.15;99512.63;5096556;28;20274;-76
2023/09/21 07:25:38;;;;;;;3.67;2.80;;;;;;;17.18;75.03;99522.06;5096189;28;20213;-76
2023/09/21 07:28:07;;;;;;;5.97;3.07;;;;;;;17.23;75.29;99519.47;5096481;28;20337;-76
2023/09/21 07:30:37;;;;;;;4.63;2.37;;;;;;;17.31;74.37;99508.34;5096618;28;20205;-77
2023/09/21 07:33:06;;;;;;;3.57;2.50;;;;;;;17.36;74.13;99511.19;5096409;28;20270;-76
2023/09/21 07:35:36;;;;;;;5.90;2.50;;;;;;;17.43;73.64;99505.66;5096347;28;20200;-76
2023/09/21 07:38:05;;;;;;;4.63;2.60;;;;;;;17.47;73.46;99506.81;5095652;28;20625;-76
2023/09/21 07:40:33;;;;;;;5.47;2.67;;;;;;;17.58;72.43;99506.03;5096163;28;20244;-75
2023/09/21 07:43:03;;;;;;;6.30;2.77;;;;;;;17.65;72.22;99504.84;5096279;28;20264;-76
2023/09/21 07:45:32;;;;;;;6.20;2.40;;;;;;;17.68;72.51;99501.66;5096074;28;20637;-76
2023/09/21 07:48:00;;;;;;;4.50;2.50;;;;;;;17.77;72.01;99501.31;5096140;28;20246;-76
2023/09/21 07:50:34;;;;;;;6.63;2.97;;;;;;;17.86;71.58;99491.75;5096044;28;20227;-76
2023/09/21 07:53:04;;;;;;;4.50;2.80;;;;;;;17.98;71.36;99487.16;5095984;28;20221;-76
2023/09/21 07:55:33;;;;;;;4.47;2.40;;;;;;;18.01;71.75;99483.97;5095615;28;20616;-76
2023/09/21 07:58:04;;;;;;;4.67;2.43;;;;;;;18.12;71.46;99480.41;5095633;28;20671;-76
2023/09/21 08:00:32;;;;;;;2.80;2.60;;;;;;;18.19;71.32;99483.78;5095889;28;20267;-76
2023/09/21 08:03:02;;;;;;;6.50;2.57;;;;;;;18.28;71.72;99479.66;5096156;28;20259;-76
2023/09/21 08:05:32;;;;;;;5.57;2.60;;;;;;;18.38;70.83;99471.75;5095769;28;20207;-76
2023/09/21 08:08:01;;;;;;;5.03;2.33;;;;;;;18.49;69.97;99460.00;5095786;28;20628;-76
2023/09/21 08:10:32;;;;;;;6.70;2.50;;;;;;;18.63;69.79;99474.94;5095641;28;20208;-76
2023/09/21 08:13:03;;;;;;;2.77;2.37;;;;;;;18.75;68.79;99469.47;5095563;28;20228;-76
2023/09/21 08:15:32;;;;;;;6.93;2.60;;;;;;;18.87;68.11;99474.84;5095845;28;20208;-75
2023/09/21 08:18:01;;;;;;;5.07;2.40;;;;;;;19.02;67.51;99478.63;5095561;28;20209;-76
2023/09/21 08:20:30;;;;;;;5.80;2.33;;;;;;;19.15;67.43;99474.75;5095755;28;20242;-76
2023/09/21 08:22:58;;;;;;;3.93;2.60;;;;;;;19.20;66.41;99474.84;5095043;28;20303;-76
2023/09/21 08:25:27;;;;;;;5.37;2.60;;;;;;;19.26;66.89;99479.28;5095150;28;20299;-76
2023/09/21 08:27:57;;;;;;;5.50;2.37;;;;;;;19.27;68.25;99467.38;5095305;28;20312;-76
2023/09/21 08:30:27;;;;;;;4.30;2.50;;;;;;;19.31;66.87;99473.13;5095579;28;20203;-76
2023/09/21 08:32:56;;;;;;;4.90;2.57;;;;;;;19.35;66.03;99479.72;5094970;28;20264;-76
2023/09/21 08:35:24;;;;;;;3.80;1.93;;;;;;;19.44;64.88;99472.81;5094952;28;20639;-76
2023/09/21 08:37:53;;;;;;;5.83;2.20;;;;;;;19.43;65.56;99472.00;5094886;28;20747;-75
2023/09/21 08:40:23;;;;;;;2.67;2.07;;;;;;;19.50;64.15;99471.81;5094739;28;20746;-75
2023/09/21 08:42:55;;;;;;;4.60;2.23;;;;;;;19.48;65.16;99468.53;5094961;28;20224;-76
2023/09/21 08:45:26;;;;;;;5.00;2.17;;;;;;;19.50;64.77;99478.06;5094967;28;20622;-76
2023/09/21 08:47:57;;;;;;;3.90;2.63;;;;;;;19.67;62.53;99465.28;5094908;28;20205;-76
2023/09/21 08:50:26;;;;;;;3.40;2.50;;;;;;;19.64;64.27;99473.13;5095189;28;20192;-76
2023/09/21 08:52:57;;;;;;;5.23;2.70;;;;;;;19.87;61.40;99482.94;5094751;28;20302;-76
2023/09/21 08:55:27;;;;;;;4.17;2.40;;;;;;;19.79;63.13;99484.22;5094786;28;20278;-76
2023/09/21 08:57:56;;;;;;;4.53;2.30;;;;;;;20.02;61.26;99496.72;5094646;28;20248;-76
2023/09/21 09:00:28;;;;;;;11.37;9.00;;;;;;;19.96;61.98;99492.31;5093609;28;20235;-75
2023/09/21 09:02:57;;;;;;;19.13;17.10;;;;;;;19.93;62.75;99487.38;5094306;28;20315;-74
2023/09/21 09:05:27;;;;;;;4.07;3.47;;;;;;;19.96;61.19;99486.88;5094295;28;20262;-74
2023/09/21 09:07:56;;;;;;;11.77;10.63;;;;;;;20.06;62.10;99485.13;5094047;28;20745;-75
2023/09/21 09:10:25;;;;;;;5.07;4.60;;;;;;;20.08;61.69;99493.81;5094411;28;20205;-73
2023/09/21 09:13:05;;;;;;;9.03;8.10;;;;;;;20.06;62.22;99490.56;5094078;28;20281;-74
2023/09/21 09:15:38;;;;;;;18.10;15.90;;;;;;;20.06;62.38;99487.84;5094223;28;20194;-74
2023/09/21 09:18:08;;;;;;;7.93;6.97;;;;;;;20.04;63.53;99480.97;5094103;28;20239;-74
2023/09/21 09:20:37;;;;;;;6.23;4.67;;;;;;;20.07;61.84;99483.19;5094305;28;20209;-74
2023/09/21 09:23:10;;;;;;;7.77;3.13;;;;;;;20.05;62.70;99475.31;5093847;28;20225;-75
2023/09/21 09:25:39;;;;;;;8.67;4.90;;;;;;;20.05;62.51;99479.91;5094101;28;20209;-75
2023/09/21 09:28:09;;;;;;;3.50;2.40;;;;;;;20.06;62.50;99493.28;5093932;28;20287;-74
2023/09/21 09:30:39;;;;;;;4.33;3.40;;;;;;;20.08;62.22;99484.84;5094079;28;20216;-74
2023/09/21 09:33:12;;;;;;;5.63;3.20;;;;;;;20.07;62.97;99483.19;5093192;28;20236;-74
2023/09/21 09:35:42;;;;;;;4.33;2.63;;;;;;;20.07;63.49;99483.19;5092630;28;20208;-75
2023/09/21 09:38:11;;;;;;;4.47;2.80;;;;;;;20.08;63.46;99476.69;5094033;28;20300;-76
2023/09/21 09:40:40;;;;;;;7.07;4.90;;;;;;;20.10;62.75;99480.00;5094024;28;20642;-76
2023/09/21 09:43:13;;;;;;;5.87;2.73;;;;;;;20.08;63.55;99473.97;5093996;28;20225;-75
2023/09/21 09:45:47;;;;;;;3.80;2.20;;;;;;;20.09;62.94;99473.75;5093540;28;20213;-75
2023/09/21 09:48:21;;;;;;;3.10;2.47;;;;;;;20.09;62.99;99465.59;5093848;28;20193;-75
2023/09/21 09:50:55;;;;;;;3.90;2.10;;;;;;;20.13;62.66;99472.16;5093793;28;20216;-75
2023/09/21 09:53:25;;;;;;;5.00;2.63;;;;;;;20.17;63.15;99469.75;5093734;28;20236;-75
2023/09/21 09:55:57;;;;;;;4.10;2.07;;;;;;;20.20;63.02;99469.25;5094085;28;20189;-75
2023/09/21 09:58:27;;;;;;;5.33;2.30;;;;;;;20.22;63.30;99467.91;5093766;28;20268;-75
2023/09/21 10:01:00;;;;;;;5.00;2.10;;;;;;;20.28;62.87;99463.38;5093406;28;20657;-75
2023/09/21 10:03:32;;;;;;;3.13;2.30;;;;;;;20.32;62.96;99458.25;5093873;28;20232;-75
2023/09/21 10:06:01;;;;;;;3.17;2.10;;;;;;;20.41;62.71;99454.81;5093835;28;20216;-75
2023/09/21 10:08:30;;;;;;;3.40;2.40;;;;;;;20.44;63.23;99457.06;5093595;28;20211;-75
2023/09/21 10:11:01;;;;;;;4.00;2.30;;;;;;;20.68;62.56;99444.81;5093571;28;20205;-75
2023/09/21 10:13:30;;;;;;;4.13;2.13;;;;;;;20.74;63.08;99441.06;5093557;28;20225;-75
2023/09/21 10:16:03;;;;;;;2.63;2.23;;;;;;;21.07;60.65;99450.03;5093198;28;20296;-75
2023/09/21 10:18:37;;;;;;;4.33;2.10;;;;;;;21.36;60.75;99448.66;5093487;28;20296;-75
2023/09/21 10:21:16;;;;;;;3.40;2.10;;;;;;;21.68;58.64;99462.19;5093524;28;20193;-75
2023/09/21 10:24:06;;;;;;;3.63;2.17;;;;;;;21.88;57.12;99451.44;5093121;28;20224;-75
2023/09/21 10:26:38;;;;;;;2.67;2.00;;;;;;;21.83;58.58;99453.28;5093418;28;20221;-75
2023/09/21 10:29:08;;;;;;;2.93;2.30;;;;;;;21.88;57.83;99445.16;5093465;28;20310;-75
2023/09/21 10:31:43;;;;;;;3.67;2.17;;;;;;;21.90;59.43;99446.56;5093384;28;20240;-75
2023/09/21 10:34:18;;;;;;;5.27;2.27;;;;;;;22.00;59.32;99437.59;5093137;28;20231;-75
2023/09/21 10:36:50;;;;;;;3.57;2.00;;;;;;;22.28;57.42;99430.91;5093393;28;20189;-76
2023/09/21 10:39:28;;;;;;;3.57;2.03;;;;;;;22.34;57.69;99422.47;5093262;28;20235;-76
2023/09/21 10:42:33;;;;;;;7.60;2.47;;;;;;;22.37;58.46;99432.00;5093289;28;20231;-75
2023/09/21 10:45:09;;;;;;;4.47;2.30;;;;;;;22.72;55.80;99435.66;5010950;28;20212;-76
2023/09/21 10:47:51;;;;;;;5.13;1.97;;;;;;;22.72;55.59;99435.66;5013458;28;20207;-76
2023/09/21 10:50:22;;;;;;;3.90;2.00;;;;;;;22.73;56.06;99437.31;5066840;28;20204;-76
2023/09/21 10:52:52;;;;;;;2.63;2.10;;;;;;;22.93;54.12;99414.66;5097855;28;20221;-76
2023/09/21 10:55:21;;;;;;;2.23;2.00;;;;;;;23.02;55.85;99423.94;5097025;28;20292;-76
2023/09/21 10:57:53;;;;;;;2.97;2.47;;;;;;;23.19;56.38;99429.13;5097105;28;20276;-76
2023/09/21 11:00:21;;;;;;;4.43;2.10;;;;;;;23.29;53.81;99434.56;5096764;28;20227;-76
2023/09/21 11:02:53;;;;;;;2.50;2.23;;;;;;;23.58;53.82;99432.94;5096961;28;20590;-76
2023/09/21 11:05:23;;;;;;;6.03;2.00;;;;;;;23.58;55.52;99427.47;5096834;28;20286;-76
2023/09/21 11:07:52;;;;;;;4.07;2.23;;;;;;;23.74;53.08;99411.84;5096526;28;20589;-76
2023/09/21 11:10:21;;;;;;;2.30;2.10;;;;;;;23.86;53.68;99414.25;5097060;28;20292;-76
2023/09/21 11:12:51;;;;;;;2.07;1.87;;;;;;;23.74;53.28;99415.38;5096388;28;20607;-76
2023/09/21 11:15:20;;;;;;;4.37;2.40;;;;;;;23.61;52.54;99426.09;5096717;28;20216;-75
2023/09/21 11:17:49;;;;;;;2.30;2.10;;;;;;;23.54;54.90;99414.63;5097300;28;20201;-75
2023/09/21 11:20:20;;;;;;;3.20;2.13;;;;;;;23.47;55.85;99414.09;5096752;28;20250;-76
2023/09/21 11:22:51;;;;;;;3.23;2.00;;;;;;;23.42;54.94;99406.75;5096530;28;20251;-76
2023/09/21 11:25:22;;;;;;;2.70;2.00;;;;;;;23.39;53.33;99393.59;5096466;28;20209;-75
2023/09/21 11:27:51;;;;;;;2.73;1.93;;;;;;;23.36;55.96;99396.03;5096551;28;20553;-76
2023/09/21 11:30:22;;;;;;;2.50;2.30;;;;;;;23.32;55.04;99397.72;5096445;28;20209;-76
2023/09/21 11:32:52;;;;;;;3.97;1.90;;;;;;;23.27;55.17;99397.72;5096211;28;20233;-76
2023/09/21 11:35:24;;;;;;;3.40;2.03;;;;;;;23.23;56.47;99397.44;5096696;28;20201;-76
2023/09/21 11:37:53;;;;;;;4.23;2.37;;;;;;;23.20;56.05;99392.53;5096041;28;20650;-76
2023/09/21 11:40:25;;;;;;;3.17;2.13;;;;;;;23.19;55.50;99396.34;5096279;28;20208;-76
2023/09/21 11:42:58;;;;;;;3.03;2.10;;;;;;;23.17;55.67;99393.91;5096219;28;20335;-75
2023/09/21 11:45:27;;;;;;;4.77;2.20;;;;;;;23.16;57.02;99383.25;5096134;28;20304;-75
2023/09/21 11:47:58;;;;;;;4.60;2.23;;;;;;;23.15;55.59;99376.19;5096120;28;20258;-75